Time;durP1;ratioP1;P1;durP2;ratioP2;P2;SDS_P1;SDS_P2;PMS_P1;PMS_P2;Temp;Humidity;BMP_temperature;BMP_pressure;BME280_temperature;BME280_humidity;BME280_pressure;Samples;Min_cycle;Max_cycle;Signal;HPM_P1;HPM_P2
2021/12/18 00:00:59;;;;;;;;;;;;;;;19.64;45.89;100790.13;2098610;28;20372;-42
2021/12/18 00:01:59;;;;;;;;;;;;;;;19.63;45.89;100783.81;2096258;28;19940;-42
2021/12/18 00:03:00;;;;;;;;;;;;;;;19.64;45.92;100790.13;2084435;28;19922;-43
2021/12/18 00:04:01;;;;;;;;;;;;;;;19.64;45.94;100782.78;2083273;28;19916;-42
2021/12/18 00:05:01;;;;;;;;;;;;;;;19.63;45.93;100781.06;2084384;28;19917;-43
2021/12/18 00:06:02;;;;;;;;;;;;;;;19.63;45.90;100781.06;2081589;28;20362;-43
2021/12/18 00:07:03;;;;;;;;;;;;;;;19.63;45.87;100780.22;2089181;28;19977;-43
2021/12/18 00:08:03;;;;;;;;;;;;;;;19.64;45.88;100779.19;2099267;28;19922;-43
2021/12/18 00:09:04;;;;;;;;;;;;;;;19.63;45.91;100775.59;2080423;28;20254;-44
2021/12/18 00:10:05;;;;;;;;;;;;;;;19.63;45.86;100772.00;2084790;28;19952;-43
2021/12/18 00:11:06;;;;;;;;;;;;;;;19.63;45.83;100772.88;2081759;28;19947;-43
2021/12/18 00:12:08;;;;;;;;;;;;;;;19.63;45.82;100772.88;2082384;28;19924;-44
2021/12/18 00:13:08;;;;;;;;;;;;;;;19.63;45.74;100770.13;2085175;28;19916;-42
2021/12/18 00:14:08;;;;;;;;;;;;;;;19.64;45.76;100768.25;2081913;28;20394;-43
2021/12/18 00:15:09;;;;;;;;;;;;;;;19.65;45.81;100775.47;2083321;28;19920;-42
2021/12/18 00:16:09;;;;;;;;;;;;;;;19.63;45.81;100767.38;2082896;28;19921;-42
2021/12/18 00:17:10;;;;;;;;;;;;;;;19.62;45.79;100768.41;2082708;28;20362;-42
2021/12/18 00:18:10;;;;;;;;;;;;;;;19.63;45.78;100767.38;2085890;28;19962;-43
2021/12/18 00:19:11;;;;;;;;;;;;;;;19.63;45.83;100772.00;2079925;28;19916;-43
2021/12/18 00:20:13;;;;;;;;;;;;;;;19.64;45.75;100769.09;2079561;28;19960;-43
2021/12/18 00:21:17;;;;;;;;;;;;;;;19.64;45.77;100769.09;2076323;28;19913;-43
2021/12/18 00:22:17;;;;;;;;;;;;;;;19.63;45.81;100772.88;2077943;28;20499;-44
2021/12/18 00:23:18;;;;;;;;;;;;;;;19.64;45.75;100768.25;2077819;28;19991;-43
2021/12/18 00:24:19;;;;;;;;;;;;;;;19.63;45.87;100769.25;2084290;28;19938;-43
2021/12/18 00:25:21;;;;;;;;;;;;;;;19.62;45.91;100770.25;2082736;28;19913;-43
2021/12/18 00:26:21;;;;;;;;;;;;;;;19.61;45.91;100774.88;2085202;28;19916;-43
2021/12/18 00:27:22;;;;;;;;;;;;;;;19.60;45.88;100770.41;2081294;28;19963;-43
2021/12/18 00:28:22;;;;;;;;;;;;;;;19.59;45.92;100765.91;2083195;28;19939;-42
2021/12/18 00:29:22;;;;;;;;;;;;;;;19.59;45.84;100765.91;2082205;28;19982;-43
2021/12/18 00:30:23;;;;;;;;;;;;;;;19.59;45.85;100765.91;2080257;28;19940;-42
2021/12/18 00:31:23;;;;;;;;;;;;;;;19.59;45.96;100767.78;2084147;28;19929;-43
2021/12/18 00:32:24;;;;;;;;;;;;;;;19.59;45.87;100767.78;2082329;28;20250;-43
2021/12/18 00:33:24;;;;;;;;;;;;;;;19.60;45.83;100767.66;2083813;28;20380;-43
2021/12/18 00:34:24;;;;;;;;;;;;;;;19.59;45.80;100762.31;2075156;28;19917;-40
2021/12/18 00:35:25;;;;;;;;;;;;;;;19.59;45.84;100765.91;2082174;28;19916;-40
2021/12/18 00:36:25;;;;;;;;;;;;;;;19.58;45.84;100769.66;2084340;28;20559;-41
2021/12/18 00:37:25;;;;;;;;;;;;;;;19.58;45.89;100757.88;2081717;28;20270;-41
2021/12/18 00:38:29;;;;;;;;;;;;;;;19.57;45.93;100765.19;2082124;28;19915;-40
2021/12/18 00:39:32;;;;;;;;;;;;;;;19.57;45.88;100758.84;2084113;28;20250;-41
2021/12/18 00:40:45;;;;;;;;;;;;;;;19.56;45.83;100759.88;2096980;28;19998;-40
2021/12/18 00:42:57;;;;;;;;;;;;;;;19.57;45.85;100756.97;2084511;28;20331;-42
2021/12/18 00:44:04;;;;;;;;;;;;;;;19.58;46.01;100746.94;2081853;28;19923;-42
2021/12/18 00:45:08;;;;;;;;;;;;;;;19.59;45.98;100752.25;2081521;28;19913;-41
2021/12/18 00:46:09;;;;;;;;;;;;;;;19.55;46.05;100748.06;2076263;28;20425;-43
2021/12/18 00:47:09;;;;;;;;;;;;;;;19.53;46.01;100749.22;2079077;28;20573;-42
2021/12/18 00:48:09;;;;;;;;;;;;;;;19.51;46.15;100745.75;2077646;28;19920;-43
2021/12/18 00:49:11;;;;;;;;;;;;;;;19.48;46.18;100747.75;2078942;28;20717;-43
2021/12/18 00:50:13;;;;;;;;;;;;;;;19.48;46.20;100735.94;2080100;28;20346;-41
2021/12/18 00:51:13;;;;;;;;;;;;;;;19.46;46.21;100743.41;2083181;28;19920;-42
2021/12/18 00:52:14;;;;;;;;;;;;;;;19.45;46.00;100747.13;2080647;28;19916;-42
2021/12/18 00:53:15;;;;;;;;;;;;;;;19.44;46.28;100749.00;2083537;28;20406;-42
2021/12/18 00:54:15;;;;;;;;;;;;;;;19.45;46.21;100747.13;2079391;28;19921;-42
2021/12/18 00:55:16;;;;;;;;;;;;;;;19.43;46.11;100744.56;2084993;28;20292;-42
2021/12/18 00:56:16;;;;;;;;;;;;;;;19.43;46.08;100746.44;2067928;28;19913;-41
2021/12/18 00:57:17;;;;;;;;;;;;;;;19.46;46.00;100754.34;2079660;28;19909;-41
2021/12/18 00:58:18;;;;;;;;;;;;;;;19.45;45.99;100752.59;2083679;28;20049;-42
2021/12/18 00:59:18;;;;;;;;;;;;;;;19.45;46.04;100747.13;2083441;28;19959;-42
2021/12/18 01:00:24;;;;;;;;;;;;;;;19.46;45.89;100746.16;2083227;28;20300;-42
2021/12/18 01:01:26;;;;;;;;;;;;;;;19.47;46.00;100750.59;2083846;28;20231;-42
2021/12/18 01:02:28;;;;;;;;;;;;;;;19.50;45.95;100750.38;2082907;28;19969;-42
2021/12/18 01:03:28;;;;;;;;;;;;;;;19.51;45.87;100746.59;2083499;28;20007;-43
2021/12/18 01:04:28;;;;;;;;;;;;;;;19.54;45.85;100750.94;2081077;28;19915;-45
2021/12/18 01:05:30;;;;;;;;;;;;;;;19.55;45.72;100742.59;2081209;28;19995;-42
2021/12/18 01:06:30;;;;;;;;;;;;;;;19.57;45.73;100735.09;2079309;28;19924;-42
2021/12/18 01:07:31;;;;;;;;;;;;;;;19.58;45.70;100736.84;2083960;28;19915;-42
2021/12/18 01:08:31;;;;;;;;;;;;;;;19.62;45.69;100741.06;2083809;28;19960;-43
2021/12/18 01:10:23;;;;;;;;;;;;;;;19.63;45.55;100740.03;2080241;28;19983;-42
2021/12/18 01:12:00;;;;;;;;;;;;;;;19.69;45.52;100734.03;2082219;28;20318;-42
2021/12/18 01:13:02;;;;;;;;;;;;;;;19.70;45.32;100729.44;2082097;28;19923;-42
2021/12/18 01:15:54;;;;;;;;;;;;;;;19.75;45.24;100737.25;2082915;28;20154;-44
2021/12/18 01:23:23;;;;;;;;;;;;;;;19.87;45.03;100745.19;2072572;28;19909;-41
2021/12/18 01:24:23;;;;;;;;;;;;;;;19.88;44.94;100743.31;2075394;28;19948;-42
2021/12/18 01:25:24;;;;;;;;;;;;;;;19.89;44.88;100751.41;2070658;28;19967;-42
2021/12/18 01:26:24;;;;;;;;;;;;;;;19.90;44.85;100750.38;2079943;28;19913;-43
2021/12/18 01:27:25;;;;;;;;;;;;;;;19.92;44.92;100744.78;2079766;28;19921;-42
2021/12/18 01:28:25;;;;;;;;;;;;;;;19.92;44.74;100742.91;2075927;28;19952;-42
2021/12/18 01:29:25;;;;;;;;;;;;;;;19.92;44.84;100739.31;2086214;28;19908;-43
2021/12/18 01:30:25;;;;;;;;;;;;;;;19.96;44.82;100740.75;2084003;28;19924;-42
2021/12/18 01:31:26;;;;;;;;;;;;;;;19.96;44.72;100735.28;2083717;28;20044;-44
2021/12/18 01:32:28;;;;;;;;;;;;;;;19.98;44.69;100736.00;2084260;28;19909;-42
2021/12/18 01:33:29;;;;;;;;;;;;;;;19.99;44.65;100734.13;2080597;28;19920;-42
2021/12/18 01:34:29;;;;;;;;;;;;;;;19.99;44.67;100740.50;2084116;28;20349;-42
2021/12/18 01:35:29;;;;;;;;;;;;;;;20.00;44.71;100746.81;2080792;28;19921;-42
2021/12/18 01:36:30;;;;;;;;;;;;;;;19.99;44.72;100737.75;2083217;28;19923;-42
2021/12/18 01:37:30;;;;;;;;;;;;;;;20.01;44.70;100738.44;2085374;28;19916;-42
2021/12/18 01:38:31;;;;;;;;;;;;;;;20.01;44.79;100738.44;2080520;28;20011;-42
2021/12/18 01:39:32;;;;;;;;;;;;;;;20.02;44.57;100736.59;2084730;28;20477;-42
2021/12/18 01:40:33;;;;;;;;;;;;;;;20.02;44.67;100740.19;2079103;28;19924;-42
2021/12/18 01:41:48;;;;;;;;;;;;;;;20.03;44.56;100747.38;2085668;28;20483;-41
2021/12/18 01:43:38;;;;;;;;;;;;;;;20.02;44.65;100734.72;2085367;28;19916;-43
2021/12/18 01:45:42;;;;;;;;;;;;;;;20.05;44.49;100741.78;2084887;28;19916;-42
2021/12/18 01:47:02;;;;;;;;;;;;;;;20.05;44.54;100745.38;2088230;28;20027;-42
2021/12/18 01:53:00;;;;;;;;;;;;;;;20.07;44.31;100735.16;2085332;28;20272;-42
2021/12/18 01:54:00;;;;;;;;;;;;;;;20.09;44.46;100744.09;2082804;28;19912;-42
2021/12/18 01:55:00;;;;;;;;;;;;;;;20.10;44.43;100742.22;2085140;28;20280;-42
2021/12/18 01:56:01;;;;;;;;;;;;;;;20.10;44.30;100745.81;2085306;28;19923;-42
2021/12/18 01:57:01;;;;;;;;;;;;;;;20.10;44.46;100743.09;2083934;28;19927;-42
2021/12/18 01:58:03;;;;;;;;;;;;;;;20.12;44.47;100746.56;2088296;28;19916;-42
2021/12/18 01:59:03;;;;;;;;;;;;;;;20.11;44.44;100744.84;2084509;28;19920;-42
2021/12/18 02:00:24;;;;;;;;;;;;;;;20.12;44.41;100746.56;2085238;28;20234;-42
2021/12/18 02:01:24;;;;;;;;;;;;;;;20.13;44.43;100742.78;2079022;28;19946;-43
2021/12/18 02:02:25;;;;;;;;;;;;;;;20.13;44.43;100740.06;2083409;28;20079;-42
2021/12/18 02:03:25;;;;;;;;;;;;;;;20.13;44.37;100745.53;2085837;28;19971;-42
2021/12/18 02:04:26;;;;;;;;;;;;;;;20.12;44.34;100749.28;2084496;28;19916;-42
2021/12/18 02:05:26;;;;;;;;;;;;;;;20.14;44.30;100746.44;2083211;28;20322;-42
2021/12/18 02:06:26;;;;;;;;;;;;;;;20.13;44.36;100737.31;2085948;28;19916;-43
2021/12/18 02:07:27;;;;;;;;;;;;;;;20.13;44.45;100742.78;2083955;28;20273;-43
2021/12/18 02:08:27;;;;;;;;;;;;;;;20.13;44.39;100736.47;2084122;28;20234;-42
2021/12/18 02:09:43;;;;;;;;;;;;;;;20.12;44.36;100735.59;2080263;28;20011;-42
2021/12/18 02:10:47;;;;;;;;;;;;;;;20.12;44.37;100738.34;2083960;28;19932;-42
2021/12/18 02:11:48;;;;;;;;;;;;;;;20.13;44.34;100741.94;2082141;28;19951;-42
2021/12/18 02:13:19;;;;;;;;;;;;;;;20.11;44.39;100739.38;2085633;28;19917;-42
2021/12/18 02:20:57;;;;;;;;;;;;;;;20.07;44.53;100735.16;2060589;28;20571;-42
2021/12/18 02:21:58;;;;;;;;;;;;;;;20.06;44.65;100732.56;2072120;28;19920;-42
2021/12/18 02:22:58;;;;;;;;;;;;;;;20.05;44.54;100728.97;2084997;28;20344;-40
2021/12/18 02:23:59;;;;;;;;;;;;;;;20.04;44.68;100731.81;2084491;28;20007;-42
2021/12/18 02:24:59;;;;;;;;;;;;;;;20.04;44.65;100731.81;2082201;28;20347;-43
2021/12/18 02:25:59;;;;;;;;;;;;;;;20.04;44.72;100731.81;2078690;28;19909;-42
2021/12/18 02:26:59;;;;;;;;;;;;;;;20.01;44.67;100722.03;2077006;28;19917;-42
2021/12/18 02:28:00;;;;;;;;;;;;;;;20.03;44.54;100725.50;2081146;28;20147;-42
2021/12/18 02:29:03;;;;;;;;;;;;;;;20.02;44.71;100732.00;2077495;28;19965;-42
2021/12/18 02:30:04;;;;;;;;;;;;;;;20.01;44.71;100732.13;2080947;28;19921;-42
2021/12/18 02:31:05;;;;;;;;;;;;;;;20.00;44.72;100736.72;2080686;28;20015;-42
2021/12/18 02:32:06;;;;;;;;;;;;;;;20.00;44.78;100731.25;2083235;28;19923;-42
2021/12/18 02:33:07;;;;;;;;;;;;;;;19.99;44.64;100726.81;2084067;28;19916;-42
2021/12/18 02:34:16;;;;;;;;;;;;;;;19.99;44.63;100728.66;2085212;28;19956;-42
2021/12/18 02:35:30;;;;;;;;;;;;;;;19.98;44.78;100726.94;2079348;28;19923;-42
2021/12/18 02:36:31;;;;;;;;;;;;;;;19.98;44.70;100725.06;2083125;28;20002;-42
2021/12/18 02:37:38;;;;;;;;;;;;;;;19.97;44.71;100720.59;2084131;28;19916;-42
2021/12/18 02:42:08;;;;;;;;;;;;;;;19.93;44.75;100719.13;2082226;28;19924;-42
2021/12/18 02:43:09;;;;;;;;;;;;;;;19.92;44.77;100714.69;2085119;28;19920;-42
2021/12/18 02:44:10;;;;;;;;;;;;;;;19.91;44.87;100719.28;2080453;28;19904;-42
2021/12/18 02:45:12;;;;;;;;;;;;;;;19.90;44.88;100713.97;2086341;28;19917;-42
2021/12/18 02:46:17;;;;;;;;;;;;;;;19.91;44.84;100702.00;2081840;28;20020;-42
2021/12/18 02:47:17;;;;;;;;;;;;;;;19.91;44.85;100710.19;2084272;28;20334;-42
2021/12/18 02:48:17;;;;;;;;;;;;;;;19.89;44.99;100706.75;2079669;28;19927;-42
2021/12/18 02:49:18;;;;;;;;;;;;;;;19.89;44.92;100710.38;2080202;28;20288;-42
2021/12/18 02:50:18;;;;;;;;;;;;;;;19.89;44.82;100709.47;2083251;28;20508;-42
2021/12/18 02:51:19;;;;;;;;;;;;;;;19.88;44.85;100700.41;2080956;28;19920;-43
2021/12/18 02:52:26;;;;;;;;;;;;;;;19.88;44.88;100705.03;2085165;28;20536;-42
2021/12/18 02:53:27;;;;;;;;;;;;;;;19.87;45.01;100706.03;2085010;28;19917;-42
2021/12/18 02:54:27;;;;;;;;;;;;;;;19.87;45.03;100703.31;2082278;28;20012;-42
2021/12/18 02:55:28;;;;;;;;;;;;;;;19.86;44.97;100701.56;2084118;28;19909;-42
2021/12/18 02:56:28;;;;;;;;;;;;;;;19.87;44.97;100700.56;2086617;28;19951;-42
2021/12/18 02:57:29;;;;;;;;;;;;;;;19.85;44.92;100706.16;2083494;28;19909;-42
2021/12/18 02:58:29;;;;;;;;;;;;;;;19.86;44.88;100707.03;2086491;28;19955;-41
2021/12/18 02:59:40;;;;;;;;;;;;;;;19.85;44.93;100705.31;2081276;28;19916;-42
2021/12/18 03:00:41;;;;;;;;;;;;;;;19.85;45.06;100708.03;2081870;28;20268;-42
2021/12/18 03:01:41;;;;;;;;;;;;;;;19.84;45.00;100709.03;2085444;28;19916;-43
2021/12/18 03:02:44;;;;;;;;;;;;;;;19.83;44.94;100699.09;2080030;28;19921;-42
2021/12/18 03:03:45;;;;;;;;;;;;;;;19.82;45.06;100703.72;2082764;28;19916;-42
2021/12/18 03:04:51;;;;;;;;;;;;;;;19.82;45.04;100695.50;2097878;28;20026;-41
2021/12/18 03:06:05;;;;;;;;;;;;;;;19.82;44.95;100697.34;2093174;28;20246;-42
2021/12/18 03:07:07;;;;;;;;;;;;;;;19.81;45.07;100698.38;2084600;28;19920;-42
2021/12/18 03:08:15;;;;;;;;;;;;;;;19.79;45.10;100693.03;2084739;28;19917;-42
2021/12/18 03:09:46;;;;;;;;;;;;;;;19.79;45.18;100694.91;2084557;28;19923;-41
2021/12/18 03:23:39;;;;;;;;;;;;;;;19.70;45.33;100702.09;2081866;28;20279;-41
2021/12/18 03:24:55;;;;;;;;;;;;;;;19.69;45.35;100693.00;2084513;28;20273;-42
2021/12/18 03:25:58;;;;;;;;;;;;;;;19.69;45.40;100693.00;2084357;28;20303;-42
2021/12/18 03:26:58;;;;;;;;;;;;;;;19.69;45.38;100706.69;2080891;28;19916;-42
2021/12/18 03:28:00;;;;;;;;;;;;;;;19.67;45.38;100700.50;2081318;28;19923;-42
2021/12/18 03:29:00;;;;;;;;;;;;;;;19.67;45.41;100697.78;2085021;28;19923;-43
2021/12/18 03:30:01;;;;;;;;;;;;;;;19.67;45.48;100696.84;2083921;28;19920;-42
2021/12/18 03:31:01;;;;;;;;;;;;;;;19.67;45.46;100703.25;2083865;28;19950;-42
2021/12/18 03:32:02;;;;;;;;;;;;;;;19.65;45.44;100694.28;2079390;28;20103;-41
2021/12/18 03:33:03;;;;;;;;;;;;;;;19.65;45.48;100697.00;2089668;28;20339;-42
2021/12/18 03:34:03;;;;;;;;;;;;;;;19.65;45.48;100705.22;2093698;28;19916;-41
2021/12/18 03:35:04;;;;;;;;;;;;;;;19.64;45.41;100698.00;2080056;28;19927;-41
2021/12/18 03:36:06;;;;;;;;;;;;;;;19.64;45.50;100697.13;2082242;28;20331;-42
2021/12/18 03:37:06;;;;;;;;;;;;;;;19.65;45.45;100698.88;2079079;28;19913;-42
2021/12/18 03:38:09;;;;;;;;;;;;;;;19.64;45.45;100698.00;2083660;28;20238;-41
2021/12/18 03:39:10;;;;;;;;;;;;;;;19.62;45.41;100689.09;2084399;28;19920;-42
2021/12/18 03:40:12;;;;;;;;;;;;;;;19.62;45.50;100694.56;2080500;28;19999;-43
2021/12/18 03:41:12;;;;;;;;;;;;;;;19.61;45.53;100689.22;2082322;28;19909;-43
2021/12/18 03:42:13;;;;;;;;;;;;;;;19.62;45.51;100699.16;2078805;28;20596;-43
2021/12/18 03:43:13;;;;;;;;;;;;;;;19.60;45.62;100696.56;2083840;28;19962;-42
2021/12/18 03:44:14;;;;;;;;;;;;;;;19.61;45.54;100691.97;2095915;28;20064;-43
2021/12/18 03:45:16;;;;;;;;;;;;;;;19.59;45.57;100700.28;2095219;28;19962;-43
2021/12/18 03:46:16;;;;;;;;;;;;;;;19.60;45.73;100692.94;2081371;28;19927;-42
2021/12/18 03:47:17;;;;;;;;;;;;;;;19.57;45.62;100691.34;2085729;28;19917;-42
2021/12/18 03:48:17;;;;;;;;;;;;;;;19.57;45.53;100699.56;2083174;28;19916;-42
2021/12/18 03:49:17;;;;;;;;;;;;;;;19.57;45.61;100699.56;2083213;28;19916;-41
2021/12/18 03:50:18;;;;;;;;;;;;;;;19.56;45.65;100697.84;2085146;28;19917;-42
2021/12/18 03:51:19;;;;;;;;;;;;;;;19.56;45.64;100697.84;2083448;28;20365;-42
2021/12/18 03:52:19;;;;;;;;;;;;;;;19.54;45.68;100688.91;2084254;28;20520;-42
2021/12/18 03:53:20;;;;;;;;;;;;;;;19.53;45.70;100692.66;2088419;28;20361;-41
2021/12/18 03:54:20;;;;;;;;;;;;;;;19.54;45.67;100699.84;2084166;28;19920;-43
2021/12/18 03:55:20;;;;;;;;;;;;;;;19.53;45.75;100698.13;2085564;28;20716;-42
2021/12/18 03:56:21;;;;;;;;;;;;;;;19.53;45.77;100705.47;2083328;28;20554;-42
2021/12/18 03:57:21;;;;;;;;;;;;;;;19.51;45.78;100691.06;2081099;28;19939;-42
2021/12/18 03:58:22;;;;;;;;;;;;;;;19.51;45.82;100697.38;2085636;28;20372;-42
2021/12/18 03:59:22;;;;;;;;;;;;;;;19.51;45.94;100691.91;2084848;28;19948;-42
2021/12/18 04:00:22;;;;;;;;;;;;;;;19.51;45.80;100702.00;2084072;28;19916;-42
2021/12/18 04:01:23;;;;;;;;;;;;;;;19.49;45.83;100711.19;2084743;28;20806;-42
2021/12/18 04:02:23;;;;;;;;;;;;;;;19.49;45.84;100711.19;2085522;28;20135;-42
2021/12/18 04:03:23;;;;;;;;;;;;;;;19.48;45.81;100698.53;2080964;28;20277;-42
2021/12/18 04:04:24;;;;;;;;;;;;;;;19.47;45.89;100696.78;2082723;28;20673;-43
2021/12/18 04:05:24;;;;;;;;;;;;;;;19.47;45.87;100702.25;2083739;28;20400;-42
2021/12/18 04:06:25;;;;;;;;;;;;;;;19.46;45.90;100700.53;2080100;28;19917;-42
2021/12/18 04:07:25;;;;;;;;;;;;;;;19.45;45.89;100696.09;2085946;28;19923;-42
2021/12/18 04:08:25;;;;;;;;;;;;;;;19.44;45.96;100696.22;2082184;28;20460;-42
2021/12/18 04:09:28;;;;;;;;;;;;;;;19.44;45.96;100699.81;2082851;28;19917;-42
2021/12/18 04:10:29;;;;;;;;;;;;;;;19.43;45.92;100699.97;2083276;28;19913;-42
2021/12/18 04:11:29;;;;;;;;;;;;;;;19.44;45.91;100696.22;2083983;28;20285;-42
2021/12/18 04:12:29;;;;;;;;;;;;;;;19.43;45.89;100689.03;2082908;28;19984;-42
2021/12/18 04:13:30;;;;;;;;;;;;;;;19.42;46.09;100693.59;2080828;28;19920;-42
2021/12/18 04:14:31;;;;;;;;;;;;;;;19.43;45.98;100691.75;2082964;28;19916;-42
2021/12/18 04:15:31;;;;;;;;;;;;;;;19.42;45.98;100692.75;2085042;28;19917;-42
2021/12/18 04:16:32;;;;;;;;;;;;;;;19.40;45.92;100694.75;2079425;28;19923;-42
2021/12/18 04:17:33;;;;;;;;;;;;;;;19.40;45.99;100694.75;2085411;28;19924;-42
2021/12/18 04:18:33;;;;;;;;;;;;;;;19.39;46.13;100695.75;2083482;28;19924;-43
2021/12/18 04:19:33;;;;;;;;;;;;;;;19.38;46.08;100692.16;2083836;28;20477;-42
2021/12/18 04:20:33;;;;;;;;;;;;;;;19.37;46.14;100698.63;2085831;28;20187;-41
2021/12/18 04:21:34;;;;;;;;;;;;;;;19.37;46.13;100698.63;2082245;28;19924;-42
2021/12/18 04:22:34;;;;;;;;;;;;;;;19.36;46.15;100698.78;2084147;28;19916;-43
2021/12/18 04:23:35;;;;;;;;;;;;;;;19.36;46.20;100694.16;2084694;28;20514;-42
2021/12/18 04:24:35;;;;;;;;;;;;;;;19.36;46.11;100698.78;2083522;28;19916;-42
2021/12/18 04:25:36;;;;;;;;;;;;;;;19.35;46.13;100699.75;2085365;28;19924;-43
2021/12/18 04:26:36;;;;;;;;;;;;;;;19.34;46.10;100700.78;2081361;28;20535;-42
2021/12/18 04:27:36;;;;;;;;;;;;;;;19.34;46.12;100698.03;2082487;28;19916;-42
2021/12/18 04:28:36;;;;;;;;;;;;;;;19.33;46.19;100699.03;2084487;28;19917;-42
2021/12/18 04:29:37;;;;;;;;;;;;;;;19.32;46.18;100697.31;2083112;28;20665;-42
2021/12/18 04:30:37;;;;;;;;;;;;;;;19.32;46.21;100697.31;2084914;28;19964;-42
2021/12/18 04:31:38;;;;;;;;;;;;;;;19.31;46.24;100703.78;2084731;28;20378;-43
2021/12/18 04:32:39;;;;;;;;;;;;;;;19.30;46.27;100704.78;2090019;28;20302;-42
2021/12/18 04:33:39;;;;;;;;;;;;;;;19.28;46.21;100700.31;2097649;28;19969;-42
2021/12/18 04:34:39;;;;;;;;;;;;;;;19.26;46.30;100699.59;2096158;28;19959;-42
2021/12/18 04:35:40;;;;;;;;;;;;;;;19.27;46.25;100700.44;2084716;28;19916;-43
2021/12/18 04:36:40;;;;;;;;;;;;;;;19.27;46.24;100706.78;2083198;28;19916;-42
2021/12/18 04:37:40;;;;;;;;;;;;;;;19.25;46.26;100703.31;2083398;28;20161;-42
2021/12/18 04:38:41;;;;;;;;;;;;;;;19.26;46.35;100710.53;2083612;28;20037;-43
2021/12/18 04:39:41;;;;;;;;;;;;;;;19.25;46.35;100706.03;2083380;28;20612;-42
2021/12/18 04:40:43;;;;;;;;;;;;;;;19.25;46.35;100705.19;2084687;28;19922;-42
2021/12/18 04:41:50;;;;;;;;;;;;;;;19.23;46.36;100705.34;2082965;28;19924;-42
2021/12/18 04:42:50;;;;;;;;;;;;;;;19.24;46.42;100708.94;2082378;28;19916;-42
2021/12/18 04:43:51;;;;;;;;;;;;;;;19.23;46.43;100708.06;2084685;28;20354;-42
2021/12/18 04:44:51;;;;;;;;;;;;;;;19.22;46.47;100709.06;2082325;28;19923;-42
2021/12/18 04:45:51;;;;;;;;;;;;;;;19.20;46.46;100708.31;2083709;28;20246;-41
2021/12/18 04:46:53;;;;;;;;;;;;;;;19.20;46.49;100705.59;2083118;28;19916;-42
2021/12/18 04:47:55;;;;;;;;;;;;;;;19.21;46.44;100703.75;2083407;28;19928;-43
2021/12/18 04:48:55;;;;;;;;;;;;;;;19.20;46.39;100699.25;2084720;28;19978;-42
2021/12/18 04:49:55;;;;;;;;;;;;;;;19.19;46.26;100705.75;2079992;28;19916;-42
2021/12/18 04:50:56;;;;;;;;;;;;;;;19.20;46.50;100707.47;2077153;28;19959;-42
2021/12/18 04:51:56;;;;;;;;;;;;;;;19.19;46.45;100708.47;2084196;28;19920;-42
2021/12/18 04:52:57;;;;;;;;;;;;;;;19.18;46.50;100707.63;2082976;28;19912;-42
2021/12/18 04:53:57;;;;;;;;;;;;;;;19.17;46.51;100705.88;2088044;28;19916;-41
2021/12/18 04:54:58;;;;;;;;;;;;;;;19.17;46.51;100705.00;2084857;28;20029;-42
2021/12/18 04:55:58;;;;;;;;;;;;;;;19.16;46.57;100703.28;2098990;28;19908;-41
2021/12/18 04:56:59;;;;;;;;;;;;;;;19.16;46.50;100703.28;2100980;28;20325;-41
2021/12/18 04:57:59;;;;;;;;;;;;;;;19.15;46.45;100707.88;2082416;28;19977;-41
2021/12/18 04:59:00;;;;;;;;;;;;;;;19.15;46.52;100716.06;2085838;28;19927;-42
2021/12/18 05:00:00;;;;;;;;;;;;;;;19.16;46.52;100712.34;2082333;28;19971;-42
2021/12/18 05:01:01;;;;;;;;;;;;;;;19.14;46.48;100705.28;2081253;28;20733;-41
2021/12/18 05:02:02;;;;;;;;;;;;;;;19.14;46.50;100710.75;2093520;28;20385;-42
2021/12/18 05:03:05;;;;;;;;;;;;;;;19.13;46.75;100704.38;2083848;28;20179;-42
2021/12/18 05:04:09;;;;;;;;;;;;;;;19.13;46.50;100701.66;2083805;28;20324;-42
2021/12/18 05:05:11;;;;;;;;;;;;;;;19.13;46.59;100709.84;2076772;28;20286;-42
2021/12/18 05:06:11;;;;;;;;;;;;;;;19.12;46.62;100710.88;2079328;28;19913;-42
2021/12/18 05:07:11;;;;;;;;;;;;;;;19.11;46.57;100706.41;2078463;28;19924;-41
2021/12/18 05:08:12;;;;;;;;;;;;;;;19.11;46.58;100711.88;2077577;28;20371;-42
2021/12/18 05:09:13;;;;;;;;;;;;;;;19.10;46.63;100710.13;2080022;28;19916;-42
2021/12/18 05:10:13;;;;;;;;;;;;;;;19.10;46.79;100710.13;2101119;28;19922;-42
2021/12/18 05:11:14;;;;;;;;;;;;;;;19.10;46.67;100712.00;2083348;28;19921;-42
2021/12/18 05:12:14;;;;;;;;;;;;;;;19.09;46.54;100711.16;2070704;28;19971;-41
2021/12/18 05:13:15;;;;;;;;;;;;;;;19.07;46.73;100707.69;2083757;28;19917;-42
2021/12/18 05:14:15;;;;;;;;;;;;;;;19.08;46.62;100714.00;2084174;28;19916;-41
2021/12/18 05:15:16;;;;;;;;;;;;;;;19.08;46.63;100714.00;2081526;28;19986;-42
2021/12/18 05:16:16;;;;;;;;;;;;;;;19.07;46.57;100713.16;2086282;28;20448;-41
2021/12/18 05:17:16;;;;;;;;;;;;;;;19.06;46.60;100705.97;2084696;28;19920;-41
2021/12/18 05:18:16;;;;;;;;;;;;;;;19.06;46.73;100708.69;2086469;28;19916;-42
2021/12/18 05:19:17;;;;;;;;;;;;;;;19.06;46.68;100712.28;2085726;28;19923;-42
2021/12/18 05:20:17;;;;;;;;;;;;;;;19.05;46.64;100716.00;2092002;28;20678;-43
2021/12/18 05:21:17;;;;;;;;;;;;;;;19.04;46.65;100713.44;2091862;28;20378;-43
2021/12/18 05:22:18;;;;;;;;;;;;;;;19.05;46.68;100715.16;2078896;28;20416;-42
2021/12/18 05:23:18;;;;;;;;;;;;;;;19.04;46.79;100718.88;2088594;28;20579;-41
2021/12/18 05:24:18;;;;;;;;;;;;;;;19.03;46.63;100725.34;2086399;28;19921;-42
2021/12/18 05:25:19;;;;;;;;;;;;;;;19.03;46.68;100711.69;2079380;28;19952;-42
2021/12/18 05:26:19;;;;;;;;;;;;;;;19.03;46.75;100725.34;2079904;28;19912;-41
2021/12/18 05:27:19;;;;;;;;;;;;;;;19.01;46.78;100716.41;2077949;28;20024;-42
2021/12/18 05:28:20;;;;;;;;;;;;;;;19.00;46.72;100721.00;2092231;28;19916;-43
2021/12/18 05:29:20;;;;;;;;;;;;;;;19.01;46.62;100722.75;2092139;28;20394;-41
2021/12/18 05:30:20;;;;;;;;;;;;;;;18.99;46.83;100729.34;2085888;28;19917;-42
2021/12/18 05:31:21;;;;;;;;;;;;;;;18.99;46.75;100723.91;2084325;28;20300;-42
2021/12/18 05:32:21;;;;;;;;;;;;;;;18.99;46.79;100729.34;2084454;28;19916;-41
2021/12/18 05:33:21;;;;;;;;;;;;;;;18.99;46.72;100723.91;2086716;28;20244;-43
2021/12/18 05:34:24;;;;;;;;;;;;;;;18.99;46.86;100732.09;2083761;28;19921;-41
2021/12/18 05:35:24;;;;;;;;;;;;;;;18.98;46.83;100733.94;2086677;28;20286;-42
2021/12/18 05:36:33;;;;;;;;;;;;;;;18.97;46.95;100731.34;2084227;28;19991;-42
2021/12/18 05:37:53;;;;;;;;;;;;;;;18.97;46.75;100723.16;2084867;28;19932;-41
2021/12/18 05:38:54;;;;;;;;;;;;;;;18.97;46.89;100725.88;2085607;28;19908;-41
2021/12/18 05:39:54;;;;;;;;;;;;;;;18.96;46.87;100725.03;2085331;28;19974;-42
2021/12/18 05:40:54;;;;;;;;;;;;;;;18.95;46.82;100722.41;2082686;28;19908;-42
2021/12/18 05:41:55;;;;;;;;;;;;;;;18.95;46.92;100727.88;2078136;28;19916;-41
2021/12/18 05:42:56;;;;;;;;;;;;;;;18.95;46.74;100727.88;2077389;28;19986;-43
2021/12/18 05:43:56;;;;;;;;;;;;;;;18.93;46.94;100718.94;2077895;28;20301;-41
2021/12/18 05:44:56;;;;;;;;;;;;;;;18.92;46.80;100718.09;2085793;28;19908;-42
2021/12/18 05:45:56;;;;;;;;;;;;;;;18.93;46.93;100724.41;2083828;28;20831;-42
2021/12/18 05:46:57;;;;;;;;;;;;;;;18.93;46.85;100724.41;2085802;28;19908;-42
2021/12/18 05:47:57;;;;;;;;;;;;;;;18.92;46.97;100725.44;2084623;28;19916;-41
2021/12/18 05:48:57;;;;;;;;;;;;;;;18.91;46.93;100724.53;2084711;28;20328;-41
2021/12/18 05:49:58;;;;;;;;;;;;;;;18.92;46.82;100736.34;2085419;28;19923;-42
2021/12/18 05:50:58;;;;;;;;;;;;;;;18.91;46.97;100731.88;2082215;28;19944;-43
2021/12/18 05:51:58;;;;;;;;;;;;;;;18.91;47.01;100737.34;2085939;28;19958;-42
2021/12/18 05:53:00;;;;;;;;;;;;;;;18.91;47.05;100737.34;2083597;28;19922;-42
2021/12/18 05:54:01;;;;;;;;;;;;;;;18.90;47.00;100733.75;2083734;28;20252;-41
2021/12/18 05:55:01;;;;;;;;;;;;;;;18.89;47.02;100732.03;2085728;28;19916;-41
2021/12/18 05:56:02;;;;;;;;;;;;;;;18.89;47.04;100740.22;2100351;28;19937;-42
2021/12/18 05:57:04;;;;;;;;;;;;;;;18.89;47.08;100733.88;2102992;28;19923;-42